Time;durP1;ratioP1;P1;durP2;ratioP2;P2;SDS_P1;SDS_P2;PMS_P1;PMS_P2;Temp;Humidity;BMP_temperature;BMP_pressure;BME280_temperature;BME280_humidity;BME280_pressure;Samples;Min_cycle;Max_cycle;Signal;HPM_P1;HPM_P2
2021/07/09 00:01:42;;;;;;;0.10;0.10;;;;;;;20.75;65.28;100560.13;4896418;29;20037;-79
2021/07/09 00:04:08;;;;;;;0.10;0.10;;;;;;;20.71;66.03;100549.50;4901863;29;20059;-77
2021/07/09 00:06:35;;;;;;;0.10;0.10;;;;;;;20.66;66.52;100551.16;4896626;29;20051;-79
2021/07/09 00:09:05;;;;;;;0.10;0.10;;;;;;;20.67;66.48;100552.84;4904996;29;20061;-80
2021/07/09 00:11:31;;;;;;;0.10;0.10;;;;;;;20.63;66.62;100548.81;4880316;29;20336;-81
2021/07/09 00:13:57;;;;;;;0.10;0.10;;;;;;;20.55;66.94;100557.13;4901305;29;20051;-82
2021/07/09 00:16:23;;;;;;;0.17;0.17;;;;;;;20.52;67.13;100554.81;4900418;29;20059;-81
2021/07/09 00:18:49;;;;;;;0.10;0.10;;;;;;;20.50;67.18;100559.63;4896429;29;20333;-79
2021/07/09 00:21:16;;;;;;;0.10;0.10;;;;;;;20.46;68.15;100557.22;4904521;29;20179;-79
2021/07/09 00:23:44;;;;;;;0.60;0.20;;;;;;;20.44;67.84;100553.84;4902510;29;20066;-80
2021/07/09 00:26:10;;;;;;;0.10;0.10;;;;;;;20.35;68.24;100549.50;4900019;29;20447;-80
2021/07/09 00:28:36;;;;;;;0.15;0.15;;;;;;;20.35;68.28;100555.00;4912508;29;20048;-78
2021/07/09 00:31:02;;;;;;;0.20;0.20;;;;;;;20.32;68.52;100551.78;4900164;29;20082;-80
2021/07/09 00:33:28;;;;;;;0.17;0.17;;;;;;;20.32;68.37;100552.63;4895564;29;20072;-79
2021/07/09 00:35:54;;;;;;;0.32;0.20;;;;;;;20.32;68.40;100555.38;4903880;29;20051;-80
2021/07/09 00:38:20;;;;;;;0.10;0.10;;;;;;;20.32;68.09;100549.88;4895584;29;20151;-81
2021/07/09 00:40:46;;;;;;;0.10;0.10;;;;;;;20.32;67.50;100554.53;4909247;29;20549;-80
2021/07/09 00:43:12;;;;;;;0.22;0.20;;;;;;;20.23;67.79;100540.91;4896255;29;20045;-78
2021/07/09 00:45:38;;;;;;;0.45;0.20;;;;;;;20.24;67.95;100550.00;4888560;29;20049;-78
2021/07/09 00:48:05;;;;;;;0.20;0.20;;;;;;;20.23;68.15;100545.56;4904773;29;20035;-79
2021/07/09 00:50:31;;;;;;;0.20;0.10;;;;;;;20.23;68.29;100551.03;4911817;29;20047;-78
2021/07/09 00:52:57;;;;;;;0.10;0.10;;;;;;;20.22;68.72;100557.59;4896035;29;20493;-80
2021/07/09 00:55:23;;;;;;;0.20;0.20;;;;;;;20.19;68.88;100555.22;4901682;29;20354;-79
2021/07/09 00:57:51;;;;;;;0.10;0.10;;;;;;;20.15;69.01;100554.75;4881068;29;20044;-79
2021/07/09 01:00:18;;;;;;;0.13;0.13;;;;;;;20.09;69.46;100550.03;4866518;29;20054;-78
2021/07/09 01:02:45;;;;;;;0.20;0.10;;;;;;;20.08;69.25;100547.47;4897597;29;20063;-78
2021/07/09 01:05:24;;;;;;;0.10;0.10;;;;;;;20.04;69.73;100546.13;4893294;29;20056;-77
2021/07/09 01:07:52;;;;;;;0.10;0.10;;;;;;;20.03;69.60;100538.94;4899184;29;20036;-79
2021/07/09 01:10:21;;;;;;;0.45;0.10;;;;;;;20.02;69.58;100550.97;4901203;29;20704;-80
2021/07/09 01:12:47;;;;;;;0.20;0.20;;;;;;;19.99;69.41;100544.81;4896349;29;20463;-78
2021/07/09 01:15:16;;;;;;;0.22;0.20;;;;;;;19.95;69.58;100538.00;4904108;29;20048;-78
2021/07/09 01:17:42;;;;;;;0.13;0.13;;;;;;;19.95;70.07;100538.00;4906898;29;20170;-78
2021/07/09 01:20:10;;;;;;;0.10;0.10;;;;;;;19.93;69.96;100545.59;4878399;29;20277;-78
2021/07/09 01:22:44;;;;;;;0.10;0.10;;;;;;;19.92;70.35;100545.75;4897922;29;20150;-78
2021/07/09 01:25:17;;;;;;;0.25;0.22;;;;;;;19.91;70.33;100544.91;4887018;29;20067;-80
2021/07/09 01:27:48;;;;;;;0.20;0.20;;;;;;;19.93;70.21;100551.09;4899316;29;20060;-79
2021/07/09 01:30:17;;;;;;;0.22;0.13;;;;;;;19.96;70.29;100545.22;4908339;29;20510;-78
2021/07/09 01:32:43;;;;;;;0.20;0.20;;;;;;;19.99;69.53;100555.78;4910904;29;20044;-79
2021/07/09 01:35:11;;;;;;;0.52;0.10;;;;;;;20.01;68.89;100541.91;4904556;29;20206;-78
2021/07/09 01:37:37;;;;;;;0.10;0.10;;;;;;;20.04;68.83;100541.53;4904380;29;20055;-79
2021/07/09 01:40:09;;;;;;;0.17;0.17;;;;;;;20.05;68.74;100536.88;4906497;29;20048;-78
2021/07/09 01:42:35;;;;;;;0.30;0.20;;;;;;;20.05;68.39;100542.38;4910429;29;20047;-80
2021/07/09 01:45:01;;;;;;;0.63;0.40;;;;;;;20.05;68.28;100534.97;4921245;29;20079;-81
2021/07/09 01:47:27;;;;;;;1.08;0.50;;;;;;;20.09;68.55;100540.94;4905158;29;20051;-77
2021/07/09 01:49:56;;;;;;;0.40;0.28;;;;;;;20.13;68.35;100539.50;4898109;29;20052;-78
2021/07/09 01:52:23;;;;;;;0.20;0.20;;;;;;;20.14;68.51;100530.22;4902138;29;20059;-78
2021/07/09 01:54:49;;;;;;;0.20;0.20;;;;;;;20.16;68.95;100539.13;4897018;29;20489;-79
2021/07/09 01:57:15;;;;;;;0.20;0.20;;;;;;;20.17;69.14;100540.81;4898253;29;20041;-80
2021/07/09 01:59:42;;;;;;;0.22;0.20;;;;;;;20.15;69.55;100548.41;4865281;29;20237;-81
2021/07/09 02:02:09;;;;;;;0.77;0.32;;;;;;;20.15;69.61;100538.28;4869839;29;20094;-81
2021/07/09 02:04:47;;;;;;;0.25;0.17;;;;;;;20.18;69.86;100542.50;4885985;29;20060;-81
2021/07/09 02:07:13;;;;;;;0.20;0.20;;;;;;;20.17;69.87;100546.31;4896645;29;20056;-82
2021/07/09 02:09:47;;;;;;;0.20;0.17;;;;;;;20.18;69.91;100537.03;4891706;29;20059;-83
2021/07/09 02:12:15;;;;;;;0.20;0.20;;;;;;;20.22;69.36;100538.38;4906408;29;20039;-81
2021/07/09 02:14:41;;;;;;;0.20;0.20;;;;;;;20.28;68.82;100543.06;4887865;29;20052;-81
2021/07/09 02:17:12;;;;;;;2.15;0.80;;;;;;;20.32;68.81;100538.88;4893802;29;20043;-83
2021/07/09 02:19:39;;;;;;;0.55;0.40;;;;;;;20.40;68.05;100536.06;4913754;29;20044;-83
2021/07/09 02:22:11;;;;;;;0.47;0.30;;;;;;;20.47;67.86;100536.09;4903024;29;20076;-81
2021/07/09 02:24:42;;;;;;;0.30;0.20;;;;;;;20.54;67.72;100530.72;4921607;29;20045;-82
2021/07/09 02:27:08;;;;;;;0.10;0.10;;;;;;;20.59;68.41;100534.59;4889456;29;20052;-82
2021/07/09 02:29:35;;;;;;;0.20;0.20;;;;;;;20.63;68.66;100540.56;4901195;29;20048;-81
2021/07/09 02:32:04;;;;;;;0.30;0.30;;;;;;;20.67;68.48;100536.38;4906676;29;20044;-81
2021/07/09 02:34:30;;;;;;;0.10;0.10;;;;;;;20.71;68.85;100543.16;4906429;29;20048;-81
2021/07/09 02:36:57;;;;;;;0.30;0.20;;;;;;;20.73;68.58;100540.22;4896233;29;20178;-83
2021/07/09 02:39:27;;;;;;;0.20;0.20;;;;;;;20.76;68.78;100535.19;4908165;29;20502;-83
2021/07/09 02:41:54;;;;;;;0.20;0.20;;;;;;;20.79;68.23;100534.78;4917399;29;20580;-82
2021/07/09 02:44:21;;;;;;;0.17;0.17;;;;;;;20.81;67.84;100538.22;4884982;29;20092;-82
2021/07/09 02:46:47;;;;;;;0.20;0.20;;;;;;;20.80;68.20;100541.97;4900758;29;20063;-83
2021/07/09 02:49:13;;;;;;;0.30;0.20;;;;;;;20.77;67.84;100542.41;4891147;29;20040;-82
2021/07/09 02:51:38;;;;;;;0.20;0.20;;;;;;;20.77;67.48;100545.16;4900845;29;20055;-82
2021/07/09 02:54:05;;;;;;;0.20;0.20;;;;;;;20.80;67.12;100541.13;4883644;29;20045;-82
2021/07/09 02:56:30;;;;;;;0.10;0.10;;;;;;;20.87;66.49;100542.91;4895748;29;20040;-84
2021/07/09 02:58:58;;;;;;;0.20;0.20;;;;;;;20.96;66.17;100543.63;4905167;29;20100;-82
2021/07/09 03:01:25;;;;;;;0.20;0.20;;;;;;;21.11;65.15;100541.66;4899647;29;20048;-83
2021/07/09 03:03:54;;;;;;;0.17;0.17;;;;;;;21.25;65.05;100530.78;4908166;29;20475;-81
2021/07/09 03:06:21;;;;;;;0.20;0.20;;;;;;;21.45;63.76;100533.69;4895242;29;20083;-83
2021/07/09 03:08:47;;;;;;;0.20;0.20;;;;;;;21.63;63.95;100531.28;4903171;29;20080;-84
2021/07/09 03:11:13;;;;;;;0.25;0.20;;;;;;;21.82;63.68;100541.56;4916727;29;20040;-82
2021/07/09 03:13:40;;;;;;;0.17;0.13;;;;;;;22.02;63.87;100543.59;4916555;29;20562;-84
2021/07/09 03:16:06;;;;;;;0.20;0.20;;;;;;;22.23;63.58;100538.00;4889293;29;20041;-83
2021/07/09 03:18:32;;;;;;;0.20;0.20;;;;;;;22.41;62.84;100539.31;4919810;29;20074;-85
2021/07/09 03:20:58;;;;;;;0.25;0.20;;;;;;;22.59;61.99;100537.66;4916678;29;20041;-82
2021/07/09 03:23:24;;;;;;;0.20;0.20;;;;;;;22.77;61.50;100538.97;4921924;29;20393;-84
2021/07/09 03:25:50;;;;;;;0.22;0.20;;;;;;;22.95;60.86;100538.41;4906260;29;20100;-83
2021/07/09 03:28:16;;;;;;;0.20;0.20;;;;;;;23.12;60.79;100539.69;4921029;29;20501;-83
2021/07/09 03:30:43;;;;;;;0.20;0.20;;;;;;;23.31;60.21;100546.28;4896344;29;20130;-84
2021/07/09 03:33:10;;;;;;;0.20;0.20;;;;;;;23.45;59.59;100539.69;4914861;29;20039;-85
2021/07/09 03:35:37;;;;;;;0.20;0.20;;;;;;;23.65;59.89;100553.44;4898246;29;20613;-84
2021/07/09 03:38:04;;;;;;;0.20;0.20;;;;;;;23.75;58.79;100537.31;4894124;29;20051;-84
2021/07/09 03:40:31;;;;;;;0.25;0.25;;;;;;;23.78;57.98;100542.41;4919096;29;20084;-83
2021/07/09 03:42:57;;;;;;;0.20;0.20;;;;;;;24.00;58.10;100551.28;4918758;29;20398;-85
2021/07/09 03:45:23;;;;;;;0.20;0.20;;;;;;;24.03;57.77;100550.00;4922196;29;20059;-84
2021/07/09 03:47:49;;;;;;;0.20;0.20;;;;;;;24.32;57.28;100545.03;4909791;29;20063;-84
2021/07/09 03:50:15;;;;;;;0.20;0.20;;;;;;;24.57;56.20;100540.44;4894390;29;20040;-84
2021/07/09 03:52:43;;;;;;;0.20;0.20;;;;;;;24.67;55.79;100540.81;4936282;29;20049;-85
2021/07/09 03:55:09;;;;;;;0.28;0.20;;;;;;;24.87;54.91;100545.38;4920683;29;20158;-84
2021/07/09 03:57:36;;;;;;;0.25;0.25;;;;;;;25.07;54.76;100529.47;4910760;29;20085;-84
2021/07/09 04:00:05;;;;;;;0.30;0.30;;;;;;;25.35;54.78;100536.50;4906149;29;20067;-84
2021/07/09 04:02:39;;;;;;;0.22;0.22;;;;;;;25.58;53.36;100531.16;4888217;29;20041;-86
2021/07/09 04:05:06;;;;;;;0.20;0.20;;;;;;;25.83;52.67;100527.53;4932518;29;20069;-86
2021/07/09 04:07:38;;;;;;;0.20;0.20;;;;;;;26.08;52.41;100533.00;4928803;23;20075;-85
2021/07/09 04:10:05;;;;;;;0.20;0.20;;;;;;;26.05;52.21;100534.31;4924111;29;20063;-86
2021/07/09 04:12:31;;;;;;;0.30;0.30;;;;;;;26.26;52.80;100526.59;4978652;23;20364;-83
2021/07/09 04:14:57;;;;;;;0.30;0.30;;;;;;;26.17;52.35;100540.75;4884687;29;20049;-85
2021/07/09 04:17:23;;;;;;;0.28;0.28;;;;;;;26.28;52.03;100527.19;4896827;29;20055;-84
2021/07/09 04:19:51;;;;;;;0.52;0.38;;;;;;;26.36;51.21;100527.75;4873616;29;20049;-86
2021/07/09 04:22:21;;;;;;;0.20;0.20;;;;;;;26.66;51.05;100533.34;5001045;23;20047;-87
2021/07/09 04:31:15;;;;;;;0.30;0.30;;;;;;;27.62;48.72;100525.78;6011024;23;20046;31
2021/07/09 04:33:45;;;;;;;0.25;0.25;;;;;;;27.97;48.06;100522.13;5340651;23;20041;-87
2021/07/09 04:36:12;;;;;;;0.40;0.30;;;;;;;28.26;47.25;100525.81;5161594;23;20076;-87
2021/07/09 04:38:57;;;;;;;0.30;0.30;;;;;;;28.52;46.65;100518.88;4925413;29;20070;-87
2021/07/09 04:41:25;;;;;;;0.30;0.30;;;;;;;28.77;46.53;100520.44;4924929;29;20051;-86
2021/07/09 05:22:03;;;;;;;0.47;0.47;;;;;;;32.60;34.02;100513.47;5677568;23;20056;31
2021/07/09 05:24:30;;;;;;;;;;;;;;;33.03;33.97;100508.53;4851116;29;20338;-81
2021/07/09 05:26:58;;;;;;;0.40;0.40;;;;;;;33.23;33.65;100508.50;4900213;29;19927;-82
2021/07/09 05:29:24;;;;;;;0.52;0.40;;;;;;;33.19;33.11;100506.56;4897141;29;20037;-80
2021/07/09 05:31:51;;;;;;;0.40;0.40;;;;;;;33.40;33.36;100510.19;4877386;29;20443;-81
2021/07/09 05:34:17;;;;;;;0.40;0.40;;;;;;;33.50;32.68;100507.41;4897331;29;20059;-81
2021/07/09 05:36:44;;;;;;;0.60;0.40;;;;;;;33.69;32.26;100500.06;4896496;29;20488;-82
2021/07/09 05:39:12;;;;;;;0.43;0.43;;;;;;;33.29;32.12;100498.97;4884422;29;20091;-80
2021/07/09 05:41:38;;;;;;;0.40;0.40;;;;;;;33.44;31.87;100491.69;4884160;29;20060;-80
2021/07/09 05:44:04;;;;;;;0.40;0.40;;;;;;;33.77;32.30;100491.06;4879355;29;20048;-81
2021/07/09 05:46:33;;;;;;;0.40;0.40;;;;;;;33.85;30.96;100489.63;4913386;29;20474;-83
2021/07/09 05:49:00;;;;;;;0.50;0.50;;;;;;;34.24;30.54;100484.19;4883018;29;20044;-81
2021/07/09 05:51:26;;;;;;;0.40;0.40;;;;;;;34.70;30.39;100498.00;4884832;29;20578;-81
2021/07/09 05:53:52;;;;;;;0.50;0.50;;;;;;;34.87;29.42;100499.53;4896527;29;20041;-81
2021/07/09 05:56:21;;;;;;;0.40;0.40;;;;;;;34.92;29.49;100500.38;4895501;29;20116;-83
2021/07/09 05:58:48;;;;;;;0.50;0.50;;;;;;;34.95;29.61;100498.91;4894640;29;20040;-81
2021/07/09 06:01:15;;;;;;;0.85;0.50;;;;;;;34.90;29.07;100493.34;4895635;29;20214;-82
2021/07/09 06:03:43;;;;;;;0.50;0.50;;;;;;;35.27;28.93;100492.78;4871663;29;20049;-83
2021/07/09 06:06:09;;;;;;;0.50;0.50;;;;;;;35.61;28.32;100492.72;4898564;29;20055;-83
2021/07/09 06:08:36;;;;;;;0.60;0.60;;;;;;;36.07;27.23;100499.84;4883094;29;20056;-81
2021/07/09 06:11:02;;;;;;;0.65;0.65;;;;;;;35.99;27.23;100495.72;4917048;29;20067;-82
2021/07/09 06:13:29;;;;;;;0.50;0.50;;;;;;;35.90;27.16;100492.69;4902684;29;20097;-82
2021/07/09 06:15:56;;;;;;;0.50;0.50;;;;;;;36.43;27.00;100500.22;4906823;29;20136;-83
2021/07/09 06:18:23;;;;;;;0.50;0.50;;;;;;;36.70;26.23;100500.38;4905635;29;20032;-83
2021/07/09 06:20:49;;;;;;;0.50;0.50;;;;;;;36.32;26.89;100493.06;4910053;29;20048;-82
2021/07/09 06:23:17;;;;;;;0.50;0.50;;;;;;;37.00;26.06;100481.34;4913663;29;20052;-82
2021/07/09 06:25:44;;;;;;;0.50;0.50;;;;;;;37.04;25.35;100493.69;4905784;29;20049;-83
2021/07/09 06:28:12;;;;;;;0.60;0.60;;;;;;;37.16;25.24;100482.75;4896634;29;20040;-82
2021/07/09 06:30:39;;;;;;;0.60;0.60;;;;;;;37.48;24.83;100478.28;4907755;29;20059;-84
2021/07/09 06:33:08;;;;;;;0.68;0.68;;;;;;;37.77;24.58;100489.25;4910749;29;20045;-83
2021/07/09 06:35:36;;;;;;;0.50;0.50;;;;;;;37.70;24.87;100485.19;4912832;29;20060;-85
2021/07/09 06:38:05;;;;;;;0.60;0.60;;;;;;;38.10;24.92;100481.56;4884551;29;20110;-84
2021/07/09 06:40:34;;;;;;;0.50;0.50;;;;;;;38.34;23.74;100474.81;4886580;29;20470;-84
2021/07/09 06:43:03;;;;;;;0.60;0.60;;;;;;;38.29;23.64;100477.78;4916653;29;20123;-85
2021/07/09 06:48:30;;;;;;;0.70;0.70;;;;;;;38.08;23.20;100472.56;4942019;23;20044;-87
2021/07/09 06:50:59;;;;;;;0.70;0.70;;;;;;;38.74;22.03;100477.88;4915417;29;20395;-84
2021/07/09 06:53:25;;;;;;;0.70;0.70;;;;;;;38.82;22.45;100482.78;4900605;29;20039;-83
2021/07/09 06:55:52;;;;;;;0.60;0.60;;;;;;;39.18;22.28;100479.06;4875559;29;20049;-86
2021/07/09 06:58:20;;;;;;;0.50;0.50;;;;;;;37.18;23.66;100482.44;4895818;29;20061;-85
2021/07/09 07:00:49;;;;;;;0.50;0.50;;;;;;;37.40;24.27;100473.31;4896360;29;20041;-86
2021/07/09 07:03:16;;;;;;;0.63;0.63;;;;;;;38.64;23.68;100480.94;4927729;29;20119;-86
2021/07/09 07:05:44;;;;;;;0.70;0.70;;;;;;;39.22;22.06;100477.25;4893398;29;20123;-86
2021/07/09 07:08:19;;;;;;;0.70;0.70;;;;;;;38.90;21.53;100472.69;4911235;29;20072;-83
2021/07/09 07:10:46;;;;;;;0.73;0.73;;;;;;;39.20;21.00;100471.94;5002856;23;20053;-83
2021/07/09 07:13:14;;;;;;;0.70;0.70;;;;;;;39.33;20.10;100473.03;4868034;29;20515;-86
2021/07/09 07:15:41;;;;;;;0.73;0.73;;;;;;;39.78;19.63;100478.59;4870069;29;20072;-84
2021/07/09 07:18:08;;;;;;;0.98;0.73;;;;;;;40.07;19.96;100468.69;4841846;29;20053;-85
2021/07/09 07:20:39;;;;;;;0.90;0.90;;;;;;;39.82;20.50;100475.94;4874235;29;20037;-83
2021/07/09 07:23:08;;;;;;;0.70;0.70;;;;;;;40.25;20.60;100473.25;4849257;29;20031;-84
2021/07/09 07:25:36;;;;;;;0.65;0.65;;;;;;;40.15;20.93;100471.59;4857271;29;20492;-84
2021/07/09 07:28:05;;;;;;;0.70;0.70;;;;;;;40.10;20.63;100477.38;4852546;29;20044;-85
2021/07/09 07:30:32;;;;;;;1.00;1.00;;;;;;;39.35;21.78;100465.06;4857736;29;20049;-86
2021/07/09 07:32:59;;;;;;;0.80;0.80;;;;;;;39.06;22.32;100468.34;4840827;29;20094;-85
2021/07/09 07:35:28;;;;;;;0.80;0.80;;;;;;;38.83;22.15;100474.00;4845784;29;20049;-87
2021/07/09 07:38:00;;;;;;;0.70;0.70;;;;;;;39.64;22.01;100475.88;4844924;29;20069;-85
2021/07/09 07:40:27;;;;;;;0.90;0.90;;;;;;;40.60;20.43;100479.00;4838595;29;20204;-84
2021/07/09 07:42:54;;;;;;;0.70;0.70;;;;;;;40.54;20.07;100477.47;4854138;29;20105;-84
2021/07/09 07:45:22;;;;;;;0.80;0.80;;;;;;;40.78;19.97;100474.19;4863933;29;20053;-84
2021/07/09 07:47:48;;;;;;;0.80;0.80;;;;;;;40.35;19.85;100475.78;4838640;29;20065;-84
2021/07/09 07:50:17;;;;;;;0.95;0.95;;;;;;;40.47;20.63;100473.13;4856346;29;20062;-85
2021/07/09 07:52:44;;;;;;;1.10;0.80;;;;;;;41.20;19.42;100469.63;4876139;29;20061;-85
2021/07/09 07:55:12;;;;;;;0.90;0.90;;;;;;;40.97;19.40;100477.50;4862524;29;20045;-83
2021/07/09 07:57:42;;;;;;;0.80;0.80;;;;;;;41.19;19.03;100467.97;4918385;23;20049;-85
2021/07/09 08:00:12;;;;;;;0.90;0.90;;;;;;;41.72;19.29;100466.63;5132780;23;20046;-84
2021/07/09 08:02:41;;;;;;;0.80;0.80;;;;;;;42.06;18.23;100459.16;4912449;29;20118;-85
2021/07/09 08:08:15;;;;;;;0.90;0.90;;;;;;;42.19;18.20;100458.03;5314537;23;20056;-87
2021/07/09 08:10:41;;;;;;;0.90;0.90;;;;;;;42.57;18.53;100460.00;4932913;29;20041;-86
2021/07/09 08:16:11;;;;;;;0.80;0.80;;;;;;;42.90;17.85;100450.69;5748725;23;20064;-87
2021/07/09 08:18:43;;;;;;;0.80;0.80;;;;;;;42.83;17.66;100466.31;5291079;23;20032;31
2021/07/09 08:23:51;;;;;;;0.87;0.87;;;;;;;43.32;17.36;100455.09;5240118;23;20854;-83
2021/07/09 08:26:19;;;;;;;0.90;0.90;;;;;;;43.57;16.83;100449.47;4885978;29;20100;-85
2021/07/09 08:28:48;;;;;;;0.80;0.80;;;;;;;43.48;17.13;100445.88;4947678;23;20056;-85
2021/07/09 08:31:18;;;;;;;0.80;0.80;;;;;;;43.73;17.06;100441.88;4936920;29;20036;-85
2021/07/09 08:33:51;;;;;;;0.80;0.80;;;;;;;43.37;17.13;100433.28;5179181;23;20077;31
2021/07/09 08:39:37;;;;;;;0.88;0.88;;;;;;;43.87;16.56;100424.44;5773854;23;20064;-86
2021/07/09 08:45:31;;;;;;;0.90;0.90;;;;;;;43.54;17.10;100433.09;5532818;23;20064;-87
2021/07/09 08:48:09;;;;;;;0.90;0.90;;;;;;;43.97;16.83;100434.56;5733476;23;20860;31
2021/07/09 08:53:41;;;;;;;0.80;0.80;;;;;;;44.19;16.23;100436.88;5707063;23;20100;-87
2021/07/09 08:56:29;;;;;;;0.80;0.80;;;;;;;43.96;16.80;100432.91;5183127;23;20764;31
2021/07/09 09:02:03;;;;;;;0.80;0.80;;;;;;;44.27;17.23;100420.81;5433137;23;20056;-86
2021/07/09 09:08:13;;;;;;;0.70;0.70;;;;;;;43.68;17.94;100412.81;4942593;23;20064;31
2021/07/09 09:10:46;;;;;;;0.77;0.77;;;;;;;42.57;18.49;100411.66;4863199;29;19959;-85
2021/07/09 09:13:27;;;;;;;0.70;0.70;;;;;;;43.27;17.89;100406.94;4870293;29;20115;-85
2021/07/09 09:16:06;;;;;;;;;;;;;;;43.48;18.02;100406.03;5059965;23;20060;-87
2021/07/09 09:18:43;;;;;;;0.70;0.70;;;;;;;43.52;18.23;100407.00;4875090;29;19918;-83
2021/07/09 09:21:17;;;;;;;0.80;0.80;;;;;;;43.71;17.62;100403.56;4889265;29;20033;-82
2021/07/09 09:23:50;;;;;;;0.80;0.80;;;;;;;44.17;17.25;100409.91;4857790;29;20048;-86
2021/07/09 09:26:47;;;;;;;0.80;0.80;;;;;;;44.32;17.06;100411.22;4890052;29;20045;-84
2021/07/09 09:29:25;;;;;;;0.80;0.80;;;;;;;44.15;17.41;100403.75;4872256;29;20112;-83
2021/07/09 09:31:57;;;;;;;0.70;0.70;;;;;;;44.32;17.16;100406.38;4841345;29;20534;-83
2021/07/09 09:34:48;;;;;;;0.60;0.60;;;;;;;44.05;17.93;100408.75;4869269;29;20045;-83
2021/07/09 09:37:22;;;;;;;0.70;0.70;;;;;;;44.66;16.96;100404.94;4908863;29;20057;-84
2021/07/09 09:39:49;;;;;;;0.70;0.70;;;;;;;43.39;17.99;100396.75;4894710;29;20056;-84
2021/07/09 09:48:23;;;;;;;0.80;0.80;;;;;;;44.03;17.29;100378.97;5626642;23;19983;-83
2021/07/09 09:50:51;;;;;;;0.80;0.80;;;;;;;44.63;16.88;100388.53;4894091;23;20053;-85
2021/07/09 09:53:35;;;;;;;0.70;0.70;;;;;;;44.70;16.18;100377.34;5003516;23;20040;-82
2021/07/09 09:56:16;;;;;;;0.60;0.60;;;;;;;44.46;16.65;100377.44;4870590;29;20088;-85
2021/07/09 09:58:42;;;;;;;0.50;0.50;;;;;;;44.01;16.72;100375.63;4976008;23;20092;-83
2021/07/09 10:01:10;;;;;;;0.20;0.20;;;;;;;43.30;17.63;100366.38;4902895;29;20054;-84
2021/07/09 10:03:37;;;;;;;0.90;0.90;;;;;;;42.93;17.86;100362.63;4870065;29;20052;-81
2021/07/09 10:06:04;;;;;;;0.70;0.70;;;;;;;43.51;17.59;100356.91;4858492;29;20032;-82
2021/07/09 10:08:31;;;;;;;0.80;0.80;;;;;;;44.40;17.01;100361.78;4851292;29;20037;-84
2021/07/09 10:10:58;;;;;;;0.70;0.70;;;;;;;44.20;17.39;100367.25;4927011;23;20048;-84
2021/07/09 10:13:28;;;;;;;0.70;0.70;;;;;;;43.70;17.79;100362.00;4917834;29;20039;-85
2021/07/09 10:15:56;;;;;;;0.70;0.70;;;;;;;43.84;17.65;100353.06;4948213;23;20072;-84
2021/07/09 10:21:37;;;;;;;0.70;0.70;;;;;;;42.92;18.78;100348.72;4879470;29;20058;-83
2021/07/09 10:24:05;;;;;;;0.95;0.95;;;;;;;43.74;18.39;100352.38;4864481;29;20117;-84
2021/07/09 10:26:34;;;;;;;0.70;0.70;;;;;;;43.60;18.08;100340.53;4846286;29;20197;-83
2021/07/09 10:29:15;;;;;;;0.70;0.70;;;;;;;43.53;18.34;100335.44;4863645;29;20368;-83
2021/07/09 10:31:44;;;;;;;0.68;0.68;;;;;;;43.66;17.62;100338.25;4878128;29;20126;-83
2021/07/09 10:34:34;;;;;;;0.60;0.60;;;;;;;43.50;17.58;100333.28;4876063;29;20054;-85
2021/07/09 10:37:08;;;;;;;0.70;0.70;;;;;;;43.44;17.83;100331.00;5241373;23;20064;-85
2021/07/09 10:39:38;;;;;;;0.70;0.70;;;;;;;43.71;17.56;100335.19;4884396;29;20179;-84
2021/07/09 10:42:41;;;;;;;0.60;0.60;;;;;;;43.60;17.79;100323.44;4886244;29;20048;-85
2021/07/09 10:45:25;;;;;;;0.70;0.70;;;;;;;43.90;17.82;100326.03;4887905;29;20078;-82
2021/07/09 10:48:06;;;;;;;0.70;0.70;;;;;;;44.02;16.82;100328.84;4891013;29;20225;-83
2021/07/09 10:50:44;;;;;;;0.60;0.60;;;;;;;44.25;16.55;100324.25;4881138;29;20033;-82
2021/07/09 10:53:11;;;;;;;0.80;0.80;;;;;;;44.19;16.92;100317.16;4900644;23;20043;-85
2021/07/09 10:55:47;;;;;;;0.70;0.70;;;;;;;44.10;16.91;100310.78;5099230;23;20031;-86
2021/07/09 10:58:25;;;;;;;0.60;0.60;;;;;;;43.75;17.33;100301.94;4877373;29;20057;-84
2021/07/09 11:01:12;;;;;;;0.60;0.60;;;;;;;43.40;17.73;100298.75;4868766;29;20151;-85
2021/07/09 11:03:47;;;;;;;0.60;0.60;;;;;;;43.52;17.75;100293.09;4885506;29;20549;-86
2021/07/09 11:06:15;;;;;;;0.70;0.70;;;;;;;43.58;17.69;100303.03;4897560;29;20396;-86
2021/07/09 11:08:44;;;;;;;0.70;0.70;;;;;;;43.63;17.90;100299.94;4862995;29;20041;-82
2021/07/09 11:11:13;;;;;;;0.70;0.70;;;;;;;44.14;17.20;100297.47;4868536;29;20084;-86
2021/07/09 11:13:46;;;;;;;0.60;0.60;;;;;;;43.61;17.68;100299.47;4887371;29;22148;-86
2021/07/09 11:16:32;;;;;;;0.60;0.60;;;;;;;43.89;16.73;100301.59;4859130;29;20045;-87
2021/07/09 11:19:07;;;;;;;0.60;0.60;;;;;;;43.77;17.67;100294.69;4880544;29;20048;-85
2021/07/09 11:21:37;;;;;;;0.70;0.70;;;;;;;43.83;17.26;100291.59;4880273;29;20056;-83
2021/07/09 11:24:13;;;;;;;0.70;0.70;;;;;;;43.06;18.43;100286.63;4877191;29;20046;-84
2021/07/09 11:26:44;;;;;;;0.70;0.70;;;;;;;43.68;18.31;100291.13;4874841;29;20111;-86
2021/07/09 11:29:32;;;;;;;0.70;0.70;;;;;;;43.86;17.18;100285.16;4860364;29;20046;-84
2021/07/09 11:32:04;;;;;;;0.60;0.60;;;;;;;43.25;17.88;100278.34;4875617;29;20037;-85
2021/07/09 11:34:36;;;;;;;0.70;0.70;;;;;;;43.49;17.29;100273.84;4894566;29;20462;-83
2021/07/09 11:37:06;;;;;;;0.70;0.70;;;;;;;43.86;17.12;100279.47;4876691;29;20108;-82
2021/07/09 11:39:39;;;;;;;0.80;0.80;;;;;;;42.83;17.40;100272.84;4859940;29;20055;-84
2021/07/09 11:42:07;;;;;;;0.70;0.70;;;;;;;43.76;17.16;100267.38;4891725;29;20038;-83
2021/07/09 11:44:43;;;;;;;0.60;0.60;;;;;;;43.81;17.67;100260.63;4876982;29;20075;-83
2021/07/09 11:47:14;;;;;;;0.60;0.60;;;;;;;43.25;17.70;100258.41;4869791;29;20105;-83
2021/07/09 11:49:41;;;;;;;;;;;;;;;43.22;17.75;100256.28;4869308;29;20041;-83
2021/07/09 11:52:12;;;;;;;0.68;0.68;;;;;;;43.61;17.02;100253.88;4849333;29;19928;-86
2021/07/09 11:54:45;;;;;;;0.77;0.77;;;;;;;43.15;17.25;100249.53;4856552;29;20053;-83
2021/07/09 11:57:16;;;;;;;0.70;0.70;;;;;;;43.45;16.77;100241.56;4882672;29;20052;-84
2021/07/09 11:59:45;;;;;;;0.60;0.60;;;;;;;42.82;16.71;100241.88;4956559;23;20129;-84
2021/07/09 12:02:17;;;;;;;0.50;0.50;;;;;;;42.74;16.85;100240.81;4920029;23;20091;-85
2021/07/09 12:04:52;;;;;;;0.40;0.40;;;;;;;42.77;17.10;100234.44;4906311;29;20152;-84
2021/07/09 12:07:22;;;;;;;0.40;0.40;;;;;;;42.79;17.67;100239.78;4904815;29;20044;-85
2021/07/09 12:09:58;;;;;;;0.40;0.40;;;;;;;42.44;17.42;100239.31;4886753;29;20141;-85
2021/07/09 12:12:28;;;;;;;0.30;0.30;;;;;;;41.70;18.20;100233.28;4890115;29;20080;-83
2021/07/09 12:15:07;;;;;;;0.30;0.30;;;;;;;41.82;18.41;100227.66;4856761;29;20074;-85
2021/07/09 12:17:42;;;;;;;0.30;0.30;;;;;;;41.06;18.68;100222.16;4862231;29;20037;-85
2021/07/09 12:20:11;;;;;;;0.30;0.30;;;;;;;40.86;19.01;100213.22;4875889;29;20208;-84
2021/07/09 12:25:27;;;;;;;0.20;0.20;;;;;;;40.88;18.96;100210.91;4906672;29;20096;-86
2021/07/09 12:28:01;;;;;;;0.20;0.20;;;;;;;40.23;20.07;100200.75;5158568;23;20052;-84
2021/07/09 12:30:38;;;;;;;0.10;0.10;;;;;;;39.53;21.04;100205.59;4912794;29;20058;-85
2021/07/09 12:33:15;;;;;;;0.10;0.10;;;;;;;39.19;20.88;100215.63;4917016;29;20037;-85
2021/07/09 12:35:42;;;;;;;0.00;0.00;;;;;;;39.03;21.05;100201.13;4898208;29;20079;-82
2021/07/09 12:38:18;;;;;;;0.10;0.10;;;;;;;38.87;21.41;100214.06;4888586;29;20052;-84
2021/07/09 12:40:47;;;;;;;0.10;0.10;;;;;;;38.41;22.52;100208.84;4886755;29;20047;-84
2021/07/09 12:43:22;;;;;;;0.10;0.10;;;;;;;38.16;22.32;100202.66;4888354;29;20063;-84
2021/07/09 12:46:06;;;;;;;0.10;0.10;;;;;;;37.97;22.34;100200.06;4899809;29;20049;-82
2021/07/09 12:48:37;;;;;;;0.00;0.00;;;;;;;38.00;22.66;100193.75;4894375;29;20586;-84
2021/07/09 12:51:25;;;;;;;0.10;0.10;;;;;;;37.32;22.53;100187.16;4899702;29;20060;-83
2021/07/09 12:54:05;;;;;;;0.00;0.00;;;;;;;36.69;23.21;100185.94;4896598;29;20056;-84
2021/07/09 12:56:48;;;;;;;0.10;0.10;;;;;;;36.63;24.04;100178.72;4910887;29;20045;-83
2021/07/09 12:59:23;;;;;;;0.00;0.00;;;;;;;36.46;23.68;100178.47;4869840;29;20037;-84
2021/07/09 13:02:02;;;;;;;0.10;0.10;;;;;;;36.68;23.80;100186.25;4884771;29;20036;-84
2021/07/09 13:04:31;;;;;;;0.10;0.10;;;;;;;36.77;24.78;100177.91;4886016;29;20056;-83